sensor_id;sensor_type;location;lat;lon;timestamp;temperature;humidity
16974;DHT22;8603;46.944;7.412;2023-06-14T00:02:03;13.90;83.50
16974;DHT22;8603;46.944;7.412;2023-06-14T00:04:29;13.90;83.60
16974;DHT22;8603;46.944;7.412;2023-06-14T00:07:00;14.00;84.50
16974;DHT22;8603;46.944;7.412;2023-06-14T00:09:31;14.00;85.00
16974;DHT22;8603;46.944;7.412;2023-06-14T00:11:56;13.90;83.40
16974;DHT22;8603;46.944;7.412;2023-06-14T00:14:24;13.90;82.90
16974;DHT22;8603;46.944;7.412;2023-06-14T00:16:59;13.90;83.00
16974;DHT22;8603;46.944;7.412;2023-06-14T00:19:28;14.00;83.40
16974;DHT22;8603;46.944;7.412;2023-06-14T00:22:01;13.90;83.10
16974;DHT22;8603;46.944;7.412;2023-06-14T00:24:34;13.90;82.80
16974;DHT22;8603;46.944;7.412;2023-06-14T00:27:03;13.90;81.20
16974;DHT22;8603;46.944;7.412;2023-06-14T00:29:29;13.90;82.40
16974;DHT22;8603;46.944;7.412;2023-06-14T00:31:54;13.90;83.80
16974;DHT22;8603;46.944;7.412;2023-06-14T00:34:22;13.80;82.40
16974;DHT22;8603;46.944;7.412;2023-06-14T00:36:48;13.80;83.00
16974;DHT22;8603;46.944;7.412;2023-06-14T00:39:14;13.80;81.00
16974;DHT22;8603;46.944;7.412;2023-06-14T00:41:45;13.70;80.70
16974;DHT22;8603;46.944;7.412;2023-06-14T00:44:16;13.80;81.00
16974;DHT22;8603;46.944;7.412;2023-06-14T00:46:42;13.80;81.00
16974;DHT22;8603;46.944;7.412;2023-06-14T00:49:09;13.80;81.60
16974;DHT22;8603;46.944;7.412;2023-06-14T00:51:36;13.70;81.90
16974;DHT22;8603;46.944;7.412;2023-06-14T00:54:10;13.70;82.60
16974;DHT22;8603;46.944;7.412;2023-06-14T00:56:51;13.60;83.40
16974;DHT22;8603;46.944;7.412;2023-06-14T00:59:28;13.60;84.00
16974;DHT22;8603;46.944;7.412;2023-06-14T01:01:53;13.60;84.50
16974;DHT22;8603;46.944;7.412;2023-06-14T01:04:21;13.60;84.10
16974;DHT22;8603;46.944;7.412;2023-06-14T01:07:09;13.70;84.30
16974;DHT22;8603;46.944;7.412;2023-06-14T01:15:02;13.40;85.50
16974;DHT22;8603;46.944;7.412;2023-06-14T01:17:32;13.40;85.60
16974;DHT22;8603;46.944;7.412;2023-06-14T01:20:01;13.40;86.10
16974;DHT22;8603;46.944;7.412;2023-06-14T01:22:29;13.20;86.40
16974;DHT22;8603;46.944;7.412;2023-06-14T01:25:05;13.20;87.00
16974;DHT22;8603;46.944;7.412;2023-06-14T01:27:39;13.20;87.30
16974;DHT22;8603;46.944;7.412;2023-06-14T01:30:11;13.10;87.80
16974;DHT22;8603;46.944;7.412;2023-06-14T01:32:39;13.10;88.10
16974;DHT22;8603;46.944;7.412;2023-06-14T01:35:16;13.20;88.20
16974;DHT22;8603;46.944;7.412;2023-06-14T01:37:46;13.10;89.40
16974;DHT22;8603;46.944;7.412;2023-06-14T01:40:16;13.10;90.30
16974;DHT22;8603;46.944;7.412;2023-06-14T01:42:43;13.00;90.10
16974;DHT22;8603;46.944;7.412;2023-06-14T01:45:12;13.00;90.50
16974;DHT22;8603;46.944;7.412;2023-06-14T01:47:56;12.90;90.20
16974;DHT22;8603;46.944;7.412;2023-06-14T01:50:47;12.80;90.40
16974;DHT22;8603;46.944;7.412;2023-06-14T01:53:13;12.80;90.50
16974;DHT22;8603;46.944;7.412;2023-06-14T01:55:50;12.70;90.80
16974;DHT22;8603;46.944;7.412;2023-06-14T01:58:19;12.70;91.10
16974;DHT22;8603;46.944;7.412;2023-06-14T02:00:45;12.60;90.80
16974;DHT22;8603;46.944;7.412;2023-06-14T02:03:13;12.60;91.50
16974;DHT22;8603;46.944;7.412;2023-06-14T02:05:39;12.50;91.40
16974;DHT22;8603;46.944;7.412;2023-06-14T02:08:06;12.40;91.50
16974;DHT22;8603;46.944;7.412;2023-06-14T02:10:32;12.30;91.50
16974;DHT22;8603;46.944;7.412;2023-06-14T02:12:57;12.30;91.70
16974;DHT22;8603;46.944;7.412;2023-06-14T02:15:23;12.30;92.30
16974;DHT22;8603;46.944;7.412;2023-06-14T02:17:49;12.20;92.30
16974;DHT22;8603;46.944;7.412;2023-06-14T02:20:15;12.10;93.90
16974;DHT22;8603;46.944;7.412;2023-06-14T02:22:41;12.10;94.50
16974;DHT22;8603;46.944;7.412;2023-06-14T02:25:07;12.10;95.10
16974;DHT22;8603;46.944;7.412;2023-06-14T02:27:33;12.00;95.70
16974;DHT22;8603;46.944;7.412;2023-06-14T02:29:59;12.00;95.80
16974;DHT22;8603;46.944;7.412;2023-06-14T02:32:25;12.00;96.40
16974;DHT22;8603;46.944;7.412;2023-06-14T02:34:52;11.80;97.00
16974;DHT22;8603;46.944;7.412;2023-06-14T02:37:19;11.80;98.30
16974;DHT22;8603;46.944;7.412;2023-06-14T02:39:44;11.70;98.40
16974;DHT22;8603;46.944;7.412;2023-06-14T02:42:10;11.60;99.10
16974;DHT22;8603;46.944;7.412;2023-06-14T02:44:35;11.60;99.60
16974;DHT22;8603;46.944;7.412;2023-06-14T02:47:02;11.50;99.90
16974;DHT22;8603;46.944;7.412;2023-06-14T02:49:28;11.40;99.90
16974;DHT22;8603;46.944;7.412;2023-06-14T02:51:53;11.40;99.90
16974;DHT22;8603;46.944;7.412;2023-06-14T02:54:19;11.40;99.90
16974;DHT22;8603;46.944;7.412;2023-06-14T02:56:44;11.40;99.90
16974;DHT22;8603;46.944;7.412;2023-06-14T02:59:10;11.30;99.90
16974;DHT22;8603;46.944;7.412;2023-06-14T03:01:36;11.30;99.90
16974;DHT22;8603;46.944;7.412;2023-06-14T03:04:09;11.20;99.90
16974;DHT22;8603;46.944;7.412;2023-06-14T03:06:35;11.20;99.90
16974;DHT22;8603;46.944;7.412;2023-06-14T03:09:01;11.20;99.90
16974;DHT22;8603;46.944;7.412;2023-06-14T03:11:30;11.10;99.90
16974;DHT22;8603;46.944;7.412;2023-06-14T03:13:55;11.10;99.90
16974;DHT22;8603;46.944;7.412;2023-06-14T03:16:22;11.10;99.90
16974;DHT22;8603;46.944;7.412;2023-06-14T03:18:52;11.00;99.90
16974;DHT22;8603;46.944;7.412;2023-06-14T03:21:19;11.00;99.90
16974;DHT22;8603;46.944;7.412;2023-06-14T03:23:45;10.90;99.90
16974;DHT22;8603;46.944;7.412;2023-06-14T03:26:11;10.80;99.90
16974;DHT22;8603;46.944;7.412;2023-06-14T03:28:43;10.80;99.90
16974;DHT22;8603;46.944;7.412;2023-06-14T03:31:09;10.70;99.90
16974;DHT22;8603;46.944;7.412;2023-06-14T03:33:35;10.70;99.90
16974;DHT22;8603;46.944;7.412;2023-06-14T03:36:01;10.60;99.90
16974;DHT22;8603;46.944;7.412;2023-06-14T03:38:27;10.60;99.90
16974;DHT22;8603;46.944;7.412;2023-06-14T03:40:53;10.50;99.90
16974;DHT22;8603;46.944;7.412;2023-06-14T03:43:18;10.60;99.90
16974;DHT22;8603;46.944;7.412;2023-06-14T03:45:44;10.60;99.90
16974;DHT22;8603;46.944;7.412;2023-06-14T03:48:10;10.50;99.90
16974;DHT22;8603;46.944;7.412;2023-06-14T03:50:36;10.50;99.90
16974;DHT22;8603;46.944;7.412;2023-06-14T03:53:03;10.50;99.90
16974;DHT22;8603;46.944;7.412;2023-06-14T03:55:29;10.50;99.90
16974;DHT22;8603;46.944;7.412;2023-06-14T03:57:57;10.50;99.90
16974;DHT22;8603;46.944;7.412;2023-06-14T04:00:23;10.50;99.90
16974;DHT22;8603;46.944;7.412;2023-06-14T04:02:48;10.60;99.90
16974;DHT22;8603;46.944;7.412;2023-06-14T04:05:15;10.60;99.90
16974;DHT22;8603;46.944;7.412;2023-06-14T04:07:42;10.80;99.90
16974;DHT22;8603;46.944;7.412;2023-06-14T04:10:13;10.80;99.90
16974;DHT22;8603;46.944;7.412;2023-06-14T04:12:39;10.90;99.90
16974;DHT22;8603;46.944;7.412;2023-06-14T04:15:06;11.00;99.90
16974;DHT22;8603;46.944;7.412;2023-06-14T04:17:32;11.10;99.90
16974;DHT22;8603;46.944;7.412;2023-06-14T04:20:01;11.20;99.90
16974;DHT22;8603;46.944;7.412;2023-06-14T04:22:29;11.30;99.90
16974;DHT22;8603;46.944;7.412;2023-06-14T04:24:58;11.40;99.90
16974;DHT22;8603;46.944;7.412;2023-06-14T04:27:25;11.40;99.90
16974;DHT22;8603;46.944;7.412;2023-06-14T04:29:52;11.50;99.90
16974;DHT22;8603;46.944;7.412;2023-06-14T04:32:25;11.60;99.90
16974;DHT22;8603;46.944;7.412;2023-06-14T04:34:53;11.70;99.90
16974;DHT22;8603;46.944;7.412;2023-06-14T04:37:20;11.80;99.90
16974;DHT22;8603;46.944;7.412;2023-06-14T04:39:47;11.90;99.90
16974;DHT22;8603;46.944;7.412;2023-06-14T04:42:13;12.00;99.90
16974;DHT22;8603;46.944;7.412;2023-06-14T04:44:42;12.10;99.90
16974;DHT22;8603;46.944;7.412;2023-06-14T04:47:09;12.10;99.90
16974;DHT22;8603;46.944;7.412;2023-06-14T04:49:35;12.20;99.90
16974;DHT22;8603;46.944;7.412;2023-06-14T04:52:01;12.30;99.90
16974;DHT22;8603;46.944;7.412;2023-06-14T04:54:27;12.30;99.90
16974;DHT22;8603;46.944;7.412;2023-06-14T04:56:53;12.40;99.90
16974;DHT22;8603;46.944;7.412;2023-06-14T04:59:21;12.50;99.90
16974;DHT22;8603;46.944;7.412;2023-06-14T05:01:49;12.60;99.90
16974;DHT22;8603;46.944;7.412;2023-06-14T05:04:18;12.70;99.90
16974;DHT22;8603;46.944;7.412;2023-06-14T05:06:44;12.90;99.90
16974;DHT22;8603;46.944;7.412;2023-06-14T05:09:11;13.00;99.90
16974;DHT22;8603;46.944;7.412;2023-06-14T05:11:36;13.00;99.90
16974;DHT22;8603;46.944;7.412;2023-06-14T05:14:02;13.10;99.90
16974;DHT22;8603;46.944;7.412;2023-06-14T05:16:28;13.20;99.90
16974;DHT22;8603;46.944;7.412;2023-06-14T05:18:54;13.30;99.90
16974;DHT22;8603;46.944;7.412;2023-06-14T05:21:20;13.40;99.90
16974;DHT22;8603;46.944;7.412;2023-06-14T05:23:46;13.60;99.90
16974;DHT22;8603;46.944;7.412;2023-06-14T05:26:11;13.70;99.90
16974;DHT22;8603;46.944;7.412;2023-06-14T05:28:37;13.90;99.90
16974;DHT22;8603;46.944;7.412;2023-06-14T05:31:12;14.00;99.90
16974;DHT22;8603;46.944;7.412;2023-06-14T05:33:43;14.20;99.90
16974;DHT22;8603;46.944;7.412;2023-06-14T05:36:08;14.60;99.90
16974;DHT22;8603;46.944;7.412;2023-06-14T05:38:34;15.00;99.90
16974;DHT22;8603;46.944;7.412;2023-06-14T05:41:22;15.20;99.90
16974;DHT22;8603;46.944;7.412;2023-06-14T05:57:57;17.90;99.90
16974;DHT22;8603;46.944;7.412;2023-06-14T06:00:32;20.50;97.70
16974;DHT22;8603;46.944;7.412;2023-06-14T06:03:16;22.60;91.70
16974;DHT22;8603;46.944;7.412;2023-06-14T06:05:42;24.70;83.70
16974;DHT22;8603;46.944;7.412;2023-06-14T06:08:07;25.50;81.60
16974;DHT22;8603;46.944;7.412;2023-06-14T06:10:33;26.10;78.90
16974;DHT22;8603;46.944;7.412;2023-06-14T06:12:58;27.40;73.50
16974;DHT22;8603;46.944;7.412;2023-06-14T06:15:24;29.00;67.00
16974;DHT22;8603;46.944;7.412;2023-06-14T06:17:50;30.00;66.10
16974;DHT22;8603;46.944;7.412;2023-06-14T06:27:35;33.00;58.30
16974;DHT22;8603;46.944;7.412;2023-06-14T06:31:41;34.80;54.80
16974;DHT22;8603;46.944;7.412;2023-06-14T06:37:34;37.50;51.10
16974;DHT22;8603;46.944;7.412;2023-06-14T06:40:00;38.40;50.20
16974;DHT22;8603;46.944;7.412;2023-06-14T06:42:26;37.60;48.30
16974;DHT22;8603;46.944;7.412;2023-06-14T06:44:51;37.80;48.50
16974;DHT22;8603;46.944;7.412;2023-06-14T06:47:17;38.30;47.50
16974;DHT22;8603;46.944;7.412;2023-06-14T06:49:43;38.40;47.20
16974;DHT22;8603;46.944;7.412;2023-06-14T06:52:09;39.00;47.30
16974;DHT22;8603;46.944;7.412;2023-06-14T06:54:34;39.60;46.70
16974;DHT22;8603;46.944;7.412;2023-06-14T06:57:00;40.30;46.20
16974;DHT22;8603;46.944;7.412;2023-06-14T06:59:27;41.00;45.50
16974;DHT22;8603;46.944;7.412;2023-06-14T07:01:52;41.10;45.10
16974;DHT22;8603;46.944;7.412;2023-06-14T07:04:18;41.00;44.20
16974;DHT22;8603;46.944;7.412;2023-06-14T07:06:44;41.30;43.90
16974;DHT22;8603;46.944;7.412;2023-06-14T07:09:09;40.50;43.00
16974;DHT22;8603;46.944;7.412;2023-06-14T07:11:42;40.70;43.30
16974;DHT22;8603;46.944;7.412;2023-06-14T07:14:10;40.80;43.30
16974;DHT22;8603;46.944;7.412;2023-06-14T07:16:37;41.30;42.40
16974;DHT22;8603;46.944;7.412;2023-06-14T07:19:03;41.20;42.90
16974;DHT22;8603;46.944;7.412;2023-06-14T07:21:29;41.40;42.40
16974;DHT22;8603;46.944;7.412;2023-06-14T07:23:55;41.90;42.00
16974;DHT22;8603;46.944;7.412;2023-06-14T07:26:21;42.00;41.70
16974;DHT22;8603;46.944;7.412;2023-06-14T07:28:47;41.30;41.70
16974;DHT22;8603;46.944;7.412;2023-06-14T07:31:14;39.80;42.60
16974;DHT22;8603;46.944;7.412;2023-06-14T07:33:41;39.20;42.60
16974;DHT22;8603;46.944;7.412;2023-06-14T07:36:07;39.50;43.10
16974;DHT22;8603;46.944;7.412;2023-06-14T07:38:33;40.00;43.20
16974;DHT22;8603;46.944;7.412;2023-06-14T07:40:59;39.50;43.80
16974;DHT22;8603;46.944;7.412;2023-06-14T07:43:25;39.70;43.70
16974;DHT22;8603;46.944;7.412;2023-06-14T07:45:51;40.80;43.60
16974;DHT22;8603;46.944;7.412;2023-06-14T07:48:17;41.10;42.80
16974;DHT22;8603;46.944;7.412;2023-06-14T07:50:43;41.60;42.30
16974;DHT22;8603;46.944;7.412;2023-06-14T07:53:14;40.20;42.90
16974;DHT22;8603;46.944;7.412;2023-06-14T07:55:40;39.00;42.90
16974;DHT22;8603;46.944;7.412;2023-06-14T07:58:08;39.10;43.40
16974;DHT22;8603;46.944;7.412;2023-06-14T08:00:34;39.80;43.40
16974;DHT22;8603;46.944;7.412;2023-06-14T08:03:02;40.60;41.90
16974;DHT22;8603;46.944;7.412;2023-06-14T08:05:32;40.40;42.30
16974;DHT22;8603;46.944;7.412;2023-06-14T08:07:58;40.60;42.30
16974;DHT22;8603;46.944;7.412;2023-06-14T08:10:23;41.80;41.80
16974;DHT22;8603;46.944;7.412;2023-06-14T08:12:49;43.00;41.20
16974;DHT22;8603;46.944;7.412;2023-06-14T08:15:18;43.00;40.90
16974;DHT22;8603;46.944;7.412;2023-06-14T08:17:44;42.80;40.80
16974;DHT22;8603;46.944;7.412;2023-06-14T08:20:10;41.70;40.20
16974;DHT22;8603;46.944;7.412;2023-06-14T08:22:37;41.40;40.60
16974;DHT22;8603;46.944;7.412;2023-06-14T08:25:04;41.90;40.60
16974;DHT22;8603;46.944;7.412;2023-06-14T08:27:30;42.00;40.20
16974;DHT22;8603;46.944;7.412;2023-06-14T08:29:56;41.80;40.50
16974;DHT22;8603;46.944;7.412;2023-06-14T08:32:22;42.20;39.90
16974;DHT22;8603;46.944;7.412;2023-06-14T08:34:51;42.90;40.10
16974;DHT22;8603;46.944;7.412;2023-06-14T08:37:16;43.80;39.60
16974;DHT22;8603;46.944;7.412;2023-06-14T08:39:42;44.50;39.30
16974;DHT22;8603;46.944;7.412;2023-06-14T08:42:09;44.70;39.10
16974;DHT22;8603;46.944;7.412;2023-06-14T08:44:35;43.70;39.90
16974;DHT22;8603;46.944;7.412;2023-06-14T08:47:01;44.20;39.00
16974;DHT22;8603;46.944;7.412;2023-06-14T08:49:29;45.00;39.30
16974;DHT22;8603;46.944;7.412;2023-06-14T08:52:00;43.50;38.30
16974;DHT22;8603;46.944;7.412;2023-06-14T08:54:29;43.00;39.50
16974;DHT22;8603;46.944;7.412;2023-06-14T08:57:02;42.60;39.50
16974;DHT22;8603;46.944;7.412;2023-06-14T08:59:28;40.80;39.70
16974;DHT22;8603;46.944;7.412;2023-06-14T09:01:56;41.10;40.30
16974;DHT22;8603;46.944;7.412;2023-06-14T09:04:22;41.60;40.00
16974;DHT22;8603;46.944;7.412;2023-06-14T09:06:49;42.00;39.60
16974;DHT22;8603;46.944;7.412;2023-06-14T09:09:20;40.80;40.60
16974;DHT22;8603;46.944;7.412;2023-06-14T09:11:46;41.20;40.50
16974;DHT22;8603;46.944;7.412;2023-06-14T09:14:12;40.70;40.80
16974;DHT22;8603;46.944;7.412;2023-06-14T09:16:37;40.60;40.80
16974;DHT22;8603;46.944;7.412;2023-06-14T09:19:03;40.80;40.30
16974;DHT22;8603;46.944;7.412;2023-06-14T09:21:34;41.10;40.90
16974;DHT22;8603;46.944;7.412;2023-06-14T09:24:01;40.00;40.60
16974;DHT22;8603;46.944;7.412;2023-06-14T09:26:28;40.60;41.00
16974;DHT22;8603;46.944;7.412;2023-06-14T09:28:53;40.20;40.80
16974;DHT22;8603;46.944;7.412;2023-06-14T09:31:20;40.80;40.90
16974;DHT22;8603;46.944;7.412;2023-06-14T09:33:48;41.10;40.80
16974;DHT22;8603;46.944;7.412;2023-06-14T09:36:22;41.40;40.50
16974;DHT22;8603;46.944;7.412;2023-06-14T09:38:56;41.80;40.90
16974;DHT22;8603;46.944;7.412;2023-06-14T09:41:39;42.10;39.90
16974;DHT22;8603;46.944;7.412;2023-06-14T09:44:07;38.60;40.60
16974;DHT22;8603;46.944;7.412;2023-06-14T09:46:34;38.20;41.50
16974;DHT22;8603;46.944;7.412;2023-06-14T09:49:01;37.70;41.70
16974;DHT22;8603;46.944;7.412;2023-06-14T09:51:29;36.80;42.70
16974;DHT22;8603;46.944;7.412;2023-06-14T09:54:03;35.70;43.60
16974;DHT22;8603;46.944;7.412;2023-06-14T09:56:41;35.20;44.30
16974;DHT22;8603;46.944;7.412;2023-06-14T09:59:10;34.80;44.60
16974;DHT22;8603;46.944;7.412;2023-06-14T10:01:43;34.10;45.20
16974;DHT22;8603;46.944;7.412;2023-06-14T10:04:10;32.40;45.80
16974;DHT22;8603;46.944;7.412;2023-06-14T10:06:45;30.90;47.70
16974;DHT22;8603;46.944;7.412;2023-06-14T10:09:11;29.70;48.80
16974;DHT22;8603;46.944;7.412;2023-06-14T10:11:38;28.80;50.10
16974;DHT22;8603;46.944;7.412;2023-06-14T10:14:10;27.90;51.60
16974;DHT22;8603;46.944;7.412;2023-06-14T10:16:41;27.20;51.90
16974;DHT22;8603;46.944;7.412;2023-06-14T10:19:24;26.60;52.70
16974;DHT22;8603;46.944;7.412;2023-06-14T10:22:08;26.60;53.00
16974;DHT22;8603;46.944;7.412;2023-06-14T10:24:41;26.90;51.90
16974;DHT22;8603;46.944;7.412;2023-06-14T10:27:08;27.10;52.50
16974;DHT22;8603;46.944;7.412;2023-06-14T10:32:21;26.90;52.10
16974;DHT22;8603;46.944;7.412;2023-06-14T10:35:06;26.80;52.60
16974;DHT22;8603;46.944;7.412;2023-06-14T10:37:34;26.70;52.30
16974;DHT22;8603;46.944;7.412;2023-06-14T10:40:01;26.30;52.80
16974;DHT22;8603;46.944;7.412;2023-06-14T10:42:33;26.30;53.00
16974;DHT22;8603;46.944;7.412;2023-06-14T10:44:59;26.10;53.60
16974;DHT22;8603;46.944;7.412;2023-06-14T10:47:29;26.20;54.00
16974;DHT22;8603;46.944;7.412;2023-06-14T10:50:09;26.20;53.30
16974;DHT22;8603;46.944;7.412;2023-06-14T10:52:40;25.90;53.60
16974;DHT22;8603;46.944;7.412;2023-06-14T10:55:14;25.80;53.50
16974;DHT22;8603;46.944;7.412;2023-06-14T10:57:45;26.00;52.90
16974;DHT22;8603;46.944;7.412;2023-06-14T11:00:12;25.90;53.00
16974;DHT22;8603;46.944;7.412;2023-06-14T11:05:26;25.90;53.10
16974;DHT22;8603;46.944;7.412;2023-06-14T11:10:41;25.90;53.70
16974;DHT22;8603;46.944;7.412;2023-06-14T11:13:07;25.80;52.80
16974;DHT22;8603;46.944;7.412;2023-06-14T11:15:37;25.90;53.60
16974;DHT22;8603;46.944;7.412;2023-06-14T11:18:05;26.00;52.50
16974;DHT22;8603;46.944;7.412;2023-06-14T11:20:33;25.80;54.30
16974;DHT22;8603;46.944;7.412;2023-06-14T11:22:58;25.90;53.80
16974;DHT22;8603;46.944;7.412;2023-06-14T11:25:24;26.00;52.70
16974;DHT22;8603;46.944;7.412;2023-06-14T11:27:50;25.80;51.20
16974;DHT22;8603;46.944;7.412;2023-06-14T11:30:19;25.70;52.00
16974;DHT22;8603;46.944;7.412;2023-06-14T11:32:50;25.70;53.40
16974;DHT22;8603;46.944;7.412;2023-06-14T11:35:16;25.60;53.50
16974;DHT22;8603;46.944;7.412;2023-06-14T11:37:42;25.60;52.60
16974;DHT22;8603;46.944;7.412;2023-06-14T11:40:10;25.60;53.20
16974;DHT22;8603;46.944;7.412;2023-06-14T11:42:38;25.50;53.70
16974;DHT22;8603;46.944;7.412;2023-06-14T11:45:07;25.40;53.40
16974;DHT22;8603;46.944;7.412;2023-06-14T11:47:33;25.60;55.30
16974;DHT22;8603;46.944;7.412;2023-06-14T11:49:59;25.60;53.90
16974;DHT22;8603;46.944;7.412;2023-06-14T11:52:25;25.80;52.60
16974;DHT22;8603;46.944;7.412;2023-06-14T11:54:51;26.00;52.60
16974;DHT22;8603;46.944;7.412;2023-06-14T11:57:20;26.00;52.60
16974;DHT22;8603;46.944;7.412;2023-06-14T11:59:46;25.90;53.20
16974;DHT22;8603;46.944;7.412;2023-06-14T12:02:16;25.90;52.30
16974;DHT22;8603;46.944;7.412;2023-06-14T12:04:43;26.00;52.30
16974;DHT22;8603;46.944;7.412;2023-06-14T12:07:09;26.10;52.50
16974;DHT22;8603;46.944;7.412;2023-06-14T12:09:37;26.10;52.50
16974;DHT22;8603;46.944;7.412;2023-06-14T12:12:03;25.90;51.20
16974;DHT22;8603;46.944;7.412;2023-06-14T12:14:32;25.80;52.10
16974;DHT22;8603;46.944;7.412;2023-06-14T12:17:07;25.90;51.50
16974;DHT22;8603;46.944;7.412;2023-06-14T12:19:41;26.00;52.00
16974;DHT22;8603;46.944;7.412;2023-06-14T12:22:10;25.90;51.00
16974;DHT22;8603;46.944;7.412;2023-06-14T12:24:35;25.90;50.70
16974;DHT22;8603;46.944;7.412;2023-06-14T12:27:01;25.80;51.70
16974;DHT22;8603;46.944;7.412;2023-06-14T12:29:30;25.70;52.00
16974;DHT22;8603;46.944;7.412;2023-06-14T12:31:56;25.70;52.50
16974;DHT22;8603;46.944;7.412;2023-06-14T12:34:26;25.60;51.00
16974;DHT22;8603;46.944;7.412;2023-06-14T12:36:56;25.70;51.70
16974;DHT22;8603;46.944;7.412;2023-06-14T12:39:22;25.70;50.60
16974;DHT22;8603;46.944;7.412;2023-06-14T12:41:48;25.60;50.50
16974;DHT22;8603;46.944;7.412;2023-06-14T12:44:14;25.60;52.00
16974;DHT22;8603;46.944;7.412;2023-06-14T12:46:41;25.70;52.10
16974;DHT22;8603;46.944;7.412;2023-06-14T12:49:09;25.60;51.90
16974;DHT22;8603;46.944;7.412;2023-06-14T12:51:35;25.50;52.50
16974;DHT22;8603;46.944;7.412;2023-06-14T12:54:03;25.60;53.20
16974;DHT22;8603;46.944;7.412;2023-06-14T12:56:29;25.60;51.30
16974;DHT22;8603;46.944;7.412;2023-06-14T12:58:54;25.50;53.10
16974;DHT22;8603;46.944;7.412;2023-06-14T13:01:20;25.60;52.50
16974;DHT22;8603;46.944;7.412;2023-06-14T13:03:49;25.80;50.90
16974;DHT22;8603;46.944;7.412;2023-06-14T13:06:17;25.80;50.70
16974;DHT22;8603;46.944;7.412;2023-06-14T13:08:43;25.70;50.10
16974;DHT22;8603;46.944;7.412;2023-06-14T13:11:08;25.70;51.30
16974;DHT22;8603;46.944;7.412;2023-06-14T13:13:34;25.60;50.30
16974;DHT22;8603;46.944;7.412;2023-06-14T13:16:00;25.50;50.70
16974;DHT22;8603;46.944;7.412;2023-06-14T13:18:28;25.50;50.30
16974;DHT22;8603;46.944;7.412;2023-06-14T13:20:55;25.60;50.80
16974;DHT22;8603;46.944;7.412;2023-06-14T13:23:20;25.60;49.60
16974;DHT22;8603;46.944;7.412;2023-06-14T13:25:46;25.70;49.30
16974;DHT22;8603;46.944;7.412;2023-06-14T13:28:12;25.90;50.20
16974;DHT22;8603;46.944;7.412;2023-06-14T13:30:37;25.90;50.80
16974;DHT22;8603;46.944;7.412;2023-06-14T13:33:03;25.90;48.20
16974;DHT22;8603;46.944;7.412;2023-06-14T13:35:31;25.80;50.00
16974;DHT22;8603;46.944;7.412;2023-06-14T13:37:57;25.80;50.70
16974;DHT22;8603;46.944;7.412;2023-06-14T13:40:23;25.80;49.70
16974;DHT22;8603;46.944;7.412;2023-06-14T13:42:48;25.70;49.30
16974;DHT22;8603;46.944;7.412;2023-06-14T13:45:15;25.80;49.30
16974;DHT22;8603;46.944;7.412;2023-06-14T13:47:41;25.80;48.70
16974;DHT22;8603;46.944;7.412;2023-06-14T13:50:10;25.70;49.00
16974;DHT22;8603;46.944;7.412;2023-06-14T13:52:37;25.70;49.60
16974;DHT22;8603;46.944;7.412;2023-06-14T13:55:02;25.80;49.30
16974;DHT22;8603;46.944;7.412;2023-06-14T13:57:28;25.90;48.40
16974;DHT22;8603;46.944;7.412;2023-06-14T13:59:54;26.00;48.00
16974;DHT22;8603;46.944;7.412;2023-06-14T14:02:21;25.90;48.30
16974;DHT22;8603;46.944;7.412;2023-06-14T14:04:48;25.80;48.10
16974;DHT22;8603;46.944;7.412;2023-06-14T14:07:18;25.80;47.80
16974;DHT22;8603;46.944;7.412;2023-06-14T14:09:44;25.90;48.80
16974;DHT22;8603;46.944;7.412;2023-06-14T14:12:10;25.90;47.80
16974;DHT22;8603;46.944;7.412;2023-06-14T14:14:41;26.00;47.50
16974;DHT22;8603;46.944;7.412;2023-06-14T14:17:07;26.00;47.20
16974;DHT22;8603;46.944;7.412;2023-06-14T14:19:33;25.90;47.70
16974;DHT22;8603;46.944;7.412;2023-06-14T14:21:58;25.90;46.70
16974;DHT22;8603;46.944;7.412;2023-06-14T14:24:24;25.90;48.50
16974;DHT22;8603;46.944;7.412;2023-06-14T14:26:53;25.90;46.60
16974;DHT22;8603;46.944;7.412;2023-06-14T14:29:22;25.70;46.60
16974;DHT22;8603;46.944;7.412;2023-06-14T14:31:48;25.70;47.70
16974;DHT22;8603;46.944;7.412;2023-06-14T14:34:14;25.70;47.00
16974;DHT22;8603;46.944;7.412;2023-06-14T14:36:49;25.70;46.90
16974;DHT22;8603;46.944;7.412;2023-06-14T14:39:15;25.80;46.90
16974;DHT22;8603;46.944;7.412;2023-06-14T14:41:40;25.80;46.40
16974;DHT22;8603;46.944;7.412;2023-06-14T14:44:13;25.90;48.20
16974;DHT22;8603;46.944;7.412;2023-06-14T14:46:44;25.90;48.30
16974;DHT22;8603;46.944;7.412;2023-06-14T14:49:11;25.90;47.80
16974;DHT22;8603;46.944;7.412;2023-06-14T14:51:42;25.90;46.10
16974;DHT22;8603;46.944;7.412;2023-06-14T14:57:28;25.90;46.40
16974;DHT22;8603;46.944;7.412;2023-06-14T15:00:21;25.90;47.60
16974;DHT22;8603;46.944;7.412;2023-06-14T15:02:53;25.90;46.90
16974;DHT22;8603;46.944;7.412;2023-06-14T15:05:19;25.80;46.30
16974;DHT22;8603;46.944;7.412;2023-06-14T15:07:47;25.70;45.90
16974;DHT22;8603;46.944;7.412;2023-06-14T15:10:14;25.90;46.40
16974;DHT22;8603;46.944;7.412;2023-06-14T15:12:39;25.90;45.80
16974;DHT22;8603;46.944;7.412;2023-06-14T15:15:05;26.00;46.70
16974;DHT22;8603;46.944;7.412;2023-06-14T15:17:31;26.00;47.00
16974;DHT22;8603;46.944;7.412;2023-06-14T15:19:56;25.90;46.80
16974;DHT22;8603;46.944;7.412;2023-06-14T15:22:24;25.80;47.50
16974;DHT22;8603;46.944;7.412;2023-06-14T15:24:50;25.80;47.80
16974;DHT22;8603;46.944;7.412;2023-06-14T15:27:18;25.80;47.60
16974;DHT22;8603;46.944;7.412;2023-06-14T15:29:45;25.80;45.90
16974;DHT22;8603;46.944;7.412;2023-06-14T15:32:10;25.80;46.90
16974;DHT22;8603;46.944;7.412;2023-06-14T15:34:36;25.90;46.80
16974;DHT22;8603;46.944;7.412;2023-06-14T15:37:07;25.90;45.90
16974;DHT22;8603;46.944;7.412;2023-06-14T15:39:33;25.80;45.60
16974;DHT22;8603;46.944;7.412;2023-06-14T15:41:59;25.70;45.40
16974;DHT22;8603;46.944;7.412;2023-06-14T15:44:25;25.70;47.10
16974;DHT22;8603;46.944;7.412;2023-06-14T15:46:51;25.70;47.90
16974;DHT22;8603;46.944;7.412;2023-06-14T15:49:16;25.70;48.20
16974;DHT22;8603;46.944;7.412;2023-06-14T15:51:43;25.70;48.80
16974;DHT22;8603;46.944;7.412;2023-06-14T15:54:08;25.60;49.20
16974;DHT22;8603;46.944;7.412;2023-06-14T15:56:34;25.50;49.00
16974;DHT22;8603;46.944;7.412;2023-06-14T15:59:00;25.50;49.70
16974;DHT22;8603;46.944;7.412;2023-06-14T16:01:27;25.50;48.30
16974;DHT22;8603;46.944;7.412;2023-06-14T16:03:52;25.50;48.30
16974;DHT22;8603;46.944;7.412;2023-06-14T16:06:18;25.40;47.10
16974;DHT22;8603;46.944;7.412;2023-06-14T16:08:56;25.40;48.00
16974;DHT22;8603;46.944;7.412;2023-06-14T16:11:21;25.40;48.50
16974;DHT22;8603;46.944;7.412;2023-06-14T16:13:48;25.40;47.20
16974;DHT22;8603;46.944;7.412;2023-06-14T16:16:14;25.30;47.70
16974;DHT22;8603;46.944;7.412;2023-06-14T16:18:49;25.30;48.10
16974;DHT22;8603;46.944;7.412;2023-06-14T16:21:17;25.30;47.00
16974;DHT22;8603;46.944;7.412;2023-06-14T16:23:43;25.30;46.30
16974;DHT22;8603;46.944;7.412;2023-06-14T16:26:11;25.30;47.60
16974;DHT22;8603;46.944;7.412;2023-06-14T16:28:40;25.40;48.20
16974;DHT22;8603;46.944;7.412;2023-06-14T16:31:15;25.40;48.10
16974;DHT22;8603;46.944;7.412;2023-06-14T16:33:42;25.40;49.00